createdAt,value
2018-01-25T00:00:14.182Z,1003.07
2018-01-25T00:00:40.279Z,1002.88
2018-01-25T00:01:06.381Z,1002.81
2018-01-25T00:01:32.488Z,1002.89
2018-01-25T00:01:58.584Z,1002.93
2018-01-25T00:02:24.693Z,1003.06
2018-01-25T00:02:50.792Z,1002.91
2018-01-25T00:03:16.895Z,1002.82
2018-01-25T00:03:42.992Z,1003.05
2018-01-25T00:04:09.092Z,1002.97
2018-01-25T00:04:35.198Z,1003.05
2018-01-25T00:05:01.305Z,1002.97
2018-01-25T00:05:27.408Z,1003.22
2018-01-25T00:05:53.509Z,1003.04
2018-01-25T00:06:19.615Z,1003.42
2018-01-25T00:06:45.732Z,1003.1
2018-01-25T00:07:11.830Z,1003.07
2018-01-25T00:07:37.935Z,1003.18
2018-01-25T00:08:04.040Z,1003.04
2018-01-25T00:08:30.134Z,1003.05
2018-01-25T00:08:56.239Z,1003.07
2018-01-25T00:09:22.373Z,1003.16
2018-01-25T00:09:48.453Z,1003.05
2018-01-25T00:10:14.553Z,1003.22
2018-01-25T00:10:40.661Z,1003.17
2018-01-25T00:11:06.766Z,1003.23
2018-01-25T00:11:32.863Z,1003.19
2018-01-25T00:11:58.967Z,1003.24
2018-01-25T00:12:25.069Z,1003.32
2018-01-25T00:12:51.172Z,1003.37
2018-01-25T00:13:17.275Z,1003.4
2018-01-25T00:13:43.373Z,1003.41
2018-01-25T00:14:09.479Z,1003.39
2018-01-25T00:14:35.575Z,1003.46
2018-01-25T00:15:01.725Z,1003.49
2018-01-25T00:15:27.782Z,1003.58
2018-01-25T00:15:53.887Z,1003.54
2018-01-25T00:16:19.988Z,1003.45
2018-01-25T00:16:46.090Z,1003.53
2018-01-25T00:17:12.199Z,1003.58
2018-01-25T00:17:38.297Z,1003.57
2018-01-25T00:18:04.402Z,1003.63
2018-01-25T00:18:30.506Z,1003.62
2018-01-25T00:18:56.609Z,1003.57
2018-01-25T00:19:22.708Z,1003.54
2018-01-25T00:19:48.814Z,1003.48
2018-01-25T00:20:14.918Z,1003.45
2018-01-25T00:20:41.024Z,1003.52
2018-01-25T00:21:07.141Z,1003.59
2018-01-25T00:21:33.256Z,1003.69
2018-01-25T00:21:59.359Z,1003.69
2018-01-25T00:22:25.465Z,1003.73
2018-01-25T00:22:51.562Z,1003.71
2018-01-25T00:23:17.667Z,1003.63
2018-01-25T00:23:43.781Z,1003.7
2018-01-25T00:24:09.874Z,1003.68
2018-01-25T00:24:35.984Z,1003.71
2018-01-25T00:25:02.080Z,1003.66
2018-01-25T00:25:28.180Z,1003.72
2018-01-25T00:25:54.297Z,1003.7
2018-01-25T00:26:20.408Z,1003.79
2018-01-25T00:26:46.509Z,1003.8
2018-01-25T00:27:12.609Z,1003.76
2018-01-25T00:27:38.709Z,1003.83
2018-01-25T00:28:04.812Z,1003.77
2018-01-25T00:28:30.921Z,1003.93
2018-01-25T00:28:57.022Z,1003.91
2018-01-25T00:29:23.124Z,1003.83
2018-01-25T00:29:49.225Z,1003.89
2018-01-25T00:30:15.330Z,1003.9
2018-01-25T00:30:41.433Z,1003.99
2018-01-25T00:31:07.539Z,1003.94
2018-01-25T00:31:33.656Z,1004
2018-01-25T00:31:59.757Z,1003.88
2018-01-25T00:32:25.914Z,1003.89
2018-01-25T00:32:51.967Z,1003.9
2018-01-25T00:33:18.063Z,1003.85
2018-01-25T00:33:44.160Z,1003.74
2018-01-25T00:34:10.262Z,1003.77
2018-01-25T00:34:36.366Z,1003.75
2018-01-25T00:35:02.477Z,1003.84
2018-01-25T00:35:28.582Z,1003.78
2018-01-25T00:35:54.681Z,1003.87
2018-01-25T00:36:20.784Z,1003.8
2018-01-25T00:36:46.891Z,1003.81
2018-01-25T00:37:12.993Z,1003.74
2018-01-25T00:37:39.093Z,1003.72
2018-01-25T00:38:05.198Z,1003.71
2018-01-25T00:38:31.303Z,1003.73
2018-01-25T00:38:57.403Z,1003.75
2018-01-25T00:39:23.507Z,1003.73
2018-01-25T00:39:49.621Z,1003.81
2018-01-25T00:40:15.746Z,1003.84
2018-01-25T00:40:41.845Z,1003.89
2018-01-25T00:41:07.952Z,1003.83
2018-01-25T00:41:34.049Z,1003.91
2018-01-25T00:42:00.150Z,1003.91
2018-01-25T00:42:26.256Z,1003.94
2018-01-25T00:42:52.353Z,1003.95
2018-01-25T00:43:18.460Z,1003.85
2018-01-25T00:43:44.561Z,1003.89
2018-01-25T00:44:10.668Z,1003.89
2018-01-25T00:44:36.765Z,1003.87
2018-01-25T00:45:02.873Z,1003.81
2018-01-25T00:45:28.992Z,1003.82
2018-01-25T00:45:55.091Z,1003.82
2018-01-25T00:46:21.194Z,1003.82
2018-01-25T00:46:47.298Z,1003.85
2018-01-25T00:47:13.395Z,1003.85
2018-01-25T00:47:39.495Z,1003.9
2018-01-25T00:48:05.602Z,1003.89
2018-01-25T00:48:31.701Z,1003.91
2018-01-25T00:48:57.806Z,1003.95
2018-01-25T00:49:23.904Z,1003.9
2018-01-25T00:49:50.007Z,1003.99
2018-01-25T00:50:16.108Z,1004
2018-01-25T00:50:42.209Z,1003.99
2018-01-25T00:51:08.318Z,1004.03
2018-01-25T00:51:34.418Z,1003.97
2018-01-25T00:52:00.516Z,1004.03
2018-01-25T00:52:26.617Z,1003.96
2018-01-25T00:52:52.723Z,1004.03
2018-01-25T00:53:18.829Z,1004
2018-01-25T00:53:44.932Z,1004.06
2018-01-25T00:54:11.039Z,1004.08
2018-01-25T00:54:37.199Z,1004.11
2018-01-25T00:55:03.531Z,1004.08
2018-01-25T00:55:29.630Z,1004.06
2018-01-25T00:55:55.738Z,1004.03
2018-01-25T00:56:21.851Z,1004.02
2018-01-25T00:56:47.951Z,1004.06
2018-01-25T00:57:14.055Z,1004
2018-01-25T00:57:40.159Z,1004.02
2018-01-25T00:58:06.267Z,1004.01
2018-01-25T00:58:32.396Z,1003.98
2018-01-25T00:58:58.502Z,1003.93
2018-01-25T00:59:24.620Z,1004
2018-01-25T00:59:50.720Z,1004.03
2018-01-25T01:00:16.826Z,1003.98
2018-01-25T01:00:42.925Z,1004.01
2018-01-25T01:01:09.033Z,1004.04
2018-01-25T01:01:35.134Z,1004.05
2018-01-25T01:02:01.233Z,1004.07
2018-01-25T01:02:27.339Z,1004.06
2018-01-25T01:02:53.437Z,1004.09
2018-01-25T01:03:19.545Z,1004.07
2018-01-25T01:03:45.643Z,1004.03
2018-01-25T01:04:11.745Z,1004.1
2018-01-25T01:04:37.852Z,1004.05
2018-01-25T01:05:03.952Z,1004.07
2018-01-25T01:05:30.060Z,1004.09
2018-01-25T01:05:56.156Z,1004.04
2018-01-25T01:06:22.299Z,1004.07
2018-01-25T01:06:48.391Z,1004.09
2018-01-25T01:07:14.518Z,1004.1
2018-01-25T01:07:40.621Z,1004.05
2018-01-25T01:08:06.718Z,1004.04
2018-01-25T01:08:32.821Z,1004.11
2018-01-25T01:08:58.929Z,1004.04
2018-01-25T01:09:25.024Z,1004.03
2018-01-25T01:09:51.125Z,1004.07
2018-01-25T01:10:17.227Z,1004.02
2018-01-25T01:10:43.326Z,1004.03
2018-01-25T01:11:09.454Z,1004.01
2018-01-25T01:11:35.545Z,1004.01
2018-01-25T01:12:01.693Z,1003.99
2018-01-25T01:12:27.882Z,1004.02
2018-01-25T01:12:53.989Z,1004
2018-01-25T01:13:20.093Z,1003.97
2018-01-25T01:13:46.191Z,1003.98
2018-01-25T01:14:12.295Z,1004.02
2018-01-25T01:14:38.400Z,1004
2018-01-25T01:15:04.500Z,1004.01
2018-01-25T01:15:31.212Z,1004.06
2018-01-25T01:15:58.168Z,1004.02
2018-01-25T01:16:24.524Z,1004
2018-01-25T01:16:50.625Z,1004.05
2018-01-25T01:17:16.722Z,1003.96
2018-01-25T01:17:42.831Z,1004.01
2018-01-25T01:18:08.947Z,1004.09
2018-01-25T01:18:35.053Z,1004.06
2018-01-25T01:19:01.150Z,1004.05
2018-01-25T01:19:27.250Z,1004.04
2018-01-25T01:19:53.462Z,1004.03
2018-01-25T01:20:19.520Z,1004.09
2018-01-25T01:20:45.620Z,1004.06
2018-01-25T01:21:11.721Z,1004.06
2018-01-25T01:21:37.824Z,1004.09
2018-01-25T01:22:03.968Z,1004.09
2018-01-25T01:22:30.074Z,1004.09
2018-01-25T01:22:56.180Z,1004.12
2018-01-25T01:23:22.280Z,1004.09
2018-01-25T01:23:48.386Z,1004.1
2018-01-25T01:24:14.484Z,1004.1
2018-01-25T01:24:40.584Z,1004.1
2018-01-25T01:25:06.688Z,1004.02
2018-01-25T01:25:32.814Z,1004.18
2018-01-25T01:25:58.904Z,1004.14
2018-01-25T01:26:25.013Z,1004.14
2018-01-25T01:26:51.119Z,1004.18
2018-01-25T01:27:17.216Z,1004.15
2018-01-25T01:27:43.321Z,1004.18
2018-01-25T01:28:09.424Z,1004.19
2018-01-25T01:28:35.523Z,1004.18
2018-01-25T01:29:01.623Z,1004.17
2018-01-25T01:29:27.727Z,1004.24
2018-01-25T01:29:53.856Z,1004.17
2018-01-25T01:30:19.979Z,1004.18
2018-01-25T01:30:46.078Z,1004.2
2018-01-25T01:31:12.227Z,1004.21
2018-01-25T01:31:38.310Z,1004.25
2018-01-25T01:32:04.418Z,1004.2
2018-01-25T01:32:30.536Z,1004.19
2018-01-25T01:32:56.726Z,1004.19
2018-01-25T01:33:22.813Z,1004.25
2018-01-25T01:33:48.909Z,1004.24
2018-01-25T01:34:15.037Z,1004.19
2018-01-25T01:34:41.170Z,1004.24
2018-01-25T01:35:07.281Z,1004.22
2018-01-25T01:35:33.381Z,1004.22
2018-01-25T01:35:59.484Z,1004.16
2018-01-25T01:36:25.585Z,1004.31
2018-01-25T01:36:51.691Z,1004.22
2018-01-25T01:37:17.807Z,1004.23
2018-01-25T01:37:43.947Z,1004.26
2018-01-25T01:38:10.053Z,1004.26
2018-01-25T01:38:36.161Z,1004.21
2018-01-25T01:39:02.270Z,1004.24
2018-01-25T01:39:28.419Z,1004.22
2018-01-25T01:39:54.528Z,1004.25
2018-01-25T01:40:20.627Z,1004.25
2018-01-25T01:40:46.725Z,1004.27
2018-01-25T01:41:12.829Z,1004.26
2018-01-25T01:41:38.972Z,1004.28
2018-01-25T01:42:05.071Z,1004.32
2018-01-25T01:42:31.166Z,1004.35
2018-01-25T01:42:57.288Z,1004.32
2018-01-25T01:43:23.376Z,1004.26
2018-01-25T01:43:49.480Z,1004.27
2018-01-25T01:44:15.586Z,1004.31
2018-01-25T01:44:41.763Z,1004.31
2018-01-25T01:45:07.875Z,1004.35
2018-01-25T01:45:33.981Z,1004.35
2018-01-25T01:46:00.087Z,1004.41
2018-01-25T01:46:26.199Z,1004.41
2018-01-25T01:46:52.334Z,1004.41
2018-01-25T01:47:18.480Z,1004.4
2018-01-25T01:47:44.576Z,1004.43
2018-01-25T01:48:10.678Z,1004.41
2018-01-25T01:48:36.785Z,1004.45
2018-01-25T01:49:02.908Z,1004.48
2018-01-25T01:49:29.009Z,1004.48
2018-01-25T01:49:55.112Z,1004.42
2018-01-25T01:50:21.218Z,1004.48
2018-01-25T01:50:47.335Z,1004.53
2018-01-25T01:51:13.432Z,1004.55
2018-01-25T01:51:39.538Z,1004.54
2018-01-25T01:52:05.661Z,1004.56
2018-01-25T01:52:31.761Z,1004.51
2018-01-25T01:52:57.871Z,1004.51
2018-01-25T01:53:23.979Z,1004.5
2018-01-25T01:53:50.073Z,1004.46
2018-01-25T01:54:16.218Z,1004.5
2018-01-25T01:54:42.334Z,1004.5
2018-01-25T01:55:08.460Z,1004.51
2018-01-25T01:55:34.560Z,1004.49
2018-01-25T01:56:00.667Z,1004.56
2018-01-25T01:56:26.765Z,1004.51
2018-01-25T01:56:52.880Z,1004.52
2018-01-25T01:57:18.982Z,1004.52
2018-01-25T01:57:45.085Z,1004.5
2018-01-25T01:58:11.184Z,1004.52
2018-01-25T01:58:37.285Z,1004.47
2018-01-25T01:59:03.392Z,1004.46
2018-01-25T01:59:29.492Z,1004.48
2018-01-25T01:59:55.594Z,1004.52
2018-01-25T02:00:21.702Z,1004.48
2018-01-25T02:00:47.803Z,1004.46
2018-01-25T02:01:13.898Z,1004.41
2018-01-25T02:01:40.004Z,1004.53
2018-01-25T02:02:06.100Z,1004.5
2018-01-25T02:02:32.197Z,1004.53
2018-01-25T02:02:58.304Z,1004.49
2018-01-25T02:03:24.405Z,1004.51
2018-01-25T02:03:50.511Z,1004.5
2018-01-25T02:04:16.614Z,1004.49
2018-01-25T02:04:42.712Z,1004.55
2018-01-25T02:05:08.819Z,1004.55
2018-01-25T02:05:34.915Z,1004.45
2018-01-25T02:06:01.022Z,1004.53
2018-01-25T02:06:27.121Z,1004.5
2018-01-25T02:06:53.244Z,1004.49
2018-01-25T02:07:19.345Z,1004.49
2018-01-25T02:07:45.450Z,1004.51
2018-01-25T02:08:11.551Z,1004.5
2018-01-25T02:08:37.655Z,1004.49
2018-01-25T02:09:03.765Z,1004.5
2018-01-25T02:09:29.858Z,1004.53
2018-01-25T02:09:55.964Z,1004.51
2018-01-25T02:10:22.080Z,1004.52
2018-01-25T02:10:48.188Z,1004.47
2018-01-25T02:11:14.287Z,1004.53
2018-01-25T02:11:40.387Z,1004.5
2018-01-25T02:12:06.513Z,1004.47
2018-01-25T02:12:32.631Z,1004.52
2018-01-25T02:12:58.751Z,1004.51
2018-01-25T02:13:24.853Z,1004.54
2018-01-25T02:13:50.954Z,1004.55
2018-01-25T02:14:17.057Z,1004.59
2018-01-25T02:14:43.158Z,1004.6
2018-01-25T02:15:09.253Z,1004.6
2018-01-25T02:15:35.356Z,1004.6
2018-01-25T02:16:01.453Z,1004.61
2018-01-25T02:16:27.559Z,1004.69
2018-01-25T02:16:53.686Z,1004.66
2018-01-25T02:17:19.783Z,1004.66
2018-01-25T02:17:45.881Z,1004.69
2018-01-25T02:18:11.992Z,1004.63
2018-01-25T02:18:38.092Z,1004.71
2018-01-25T02:19:04.191Z,1004.69
2018-01-25T02:19:30.294Z,1004.7
2018-01-25T02:19:56.396Z,1004.67
2018-01-25T02:20:22.503Z,1004.65
2018-01-25T02:20:48.597Z,1004.66
2018-01-25T02:21:14.699Z,1004.66
2018-01-25T02:21:40.802Z,1004.63
2018-01-25T02:22:06.909Z,1004.61
2018-01-25T02:22:33.008Z,1004.63
2018-01-25T02:22:59.115Z,1004.64
2018-01-25T02:23:25.218Z,1004.68
2018-01-25T02:23:51.326Z,1004.64
2018-01-25T02:24:17.422Z,1004.65
2018-01-25T02:24:43.522Z,1004.64
2018-01-25T02:25:09.618Z,1004.64
2018-01-25T02:25:35.728Z,1004.73
2018-01-25T02:26:01.862Z,1004.73
2018-01-25T02:26:27.961Z,1004.66
2018-01-25T02:26:54.065Z,1004.67
2018-01-25T02:27:20.167Z,1004.69
2018-01-25T02:27:46.270Z,1004.72
2018-01-25T02:28:12.392Z,1004.72
2018-01-25T02:28:38.487Z,1004.77
2018-01-25T02:29:04.592Z,1004.76
2018-01-25T02:29:30.691Z,1004.76
2018-01-25T02:29:56.797Z,1004.74
2018-01-25T02:30:22.892Z,1004.85
2018-01-25T02:30:48.993Z,1004.79
2018-01-25T02:31:15.098Z,1004.76
2018-01-25T02:31:41.192Z,1004.76
2018-01-25T02:32:07.295Z,1004.76
2018-01-25T02:32:33.394Z,1004.79
2018-01-25T02:32:59.497Z,1004.79
2018-01-25T02:33:25.602Z,1004.8
2018-01-25T02:33:51.717Z,1004.83
2018-01-25T02:34:17.825Z,1004.81
2018-01-25T02:34:43.921Z,1004.88
2018-01-25T02:35:10.025Z,1004.86
2018-01-25T02:35:36.125Z,1004.84
2018-01-25T02:36:02.221Z,1004.87
2018-01-25T02:36:28.326Z,1004.91
2018-01-25T02:36:54.429Z,1004.93
2018-01-25T02:37:20.523Z,1004.93
2018-01-25T02:37:46.632Z,1004.93
2018-01-25T02:38:12.746Z,1004.93
2018-01-25T02:38:38.863Z,1004.89
2018-01-25T02:39:04.959Z,1004.94
2018-01-25T02:39:31.071Z,1004.89
2018-01-25T02:39:57.166Z,1004.93
2018-01-25T02:40:23.262Z,1004.92
2018-01-25T02:40:49.362Z,1004.9
2018-01-25T02:41:15.467Z,1004.86
2018-01-25T02:41:41.570Z,1004.94
2018-01-25T02:42:07.673Z,1004.9
2018-01-25T02:42:33.774Z,1004.91
2018-01-25T02:42:59.893Z,1004.89
2018-01-25T02:43:25.993Z,1004.91
2018-01-25T02:43:52.095Z,1004.92
2018-01-25T02:44:18.201Z,1004.93
2018-01-25T02:44:44.299Z,1004.91
2018-01-25T02:45:10.421Z,1004.92
2018-01-25T02:45:36.528Z,1004.95
2018-01-25T02:46:02.632Z,1004.92
2018-01-25T02:46:28.739Z,1004.93
2018-01-25T02:46:54.848Z,1004.91
2018-01-25T02:47:20.953Z,1004.94
2018-01-25T02:47:47.056Z,1004.91
2018-01-25T02:48:13.158Z,1004.95
2018-01-25T02:48:39.259Z,1004.91
2018-01-25T02:49:05.360Z,1004.89
2018-01-25T02:49:31.460Z,1004.94
2018-01-25T02:49:57.560Z,1004.92
2018-01-25T02:50:23.665Z,1004.83
2018-01-25T02:50:49.775Z,1004.83
2018-01-25T02:51:15.870Z,1004.84
2018-01-25T02:51:41.978Z,1004.87
2018-01-25T02:52:08.078Z,1004.86
2018-01-25T02:52:34.181Z,1004.86
2018-01-25T02:53:00.278Z,1004.88
2018-01-25T02:53:26.384Z,1004.92
2018-01-25T02:53:52.500Z,1004.9
2018-01-25T02:54:18.617Z,1004.89
2018-01-25T02:54:44.719Z,1004.91
2018-01-25T02:55:10.818Z,1004.9
2018-01-25T02:55:36.934Z,1004.86
2018-01-25T02:56:03.040Z,1004.9
2018-01-25T02:56:29.138Z,1004.94
2018-01-25T02:56:55.272Z,1004.92
2018-01-25T02:57:21.376Z,1004.92
2018-01-25T02:57:47.480Z,1004.89
2018-01-25T02:58:13.577Z,1004.95
2018-01-25T02:58:39.685Z,1004.95
2018-01-25T02:59:05.782Z,1004.92
2018-01-25T02:59:31.883Z,1004.96
2018-01-25T02:59:57.985Z,1004.99
2018-01-25T03:00:24.093Z,1005
2018-01-25T03:00:50.189Z,1005.01
2018-01-25T03:01:16.295Z,1004.98
2018-01-25T03:01:42.423Z,1004.97
2018-01-25T03:02:08.493Z,1004.96
2018-01-25T03:02:34.592Z,1005.04
2018-01-25T03:03:00.694Z,1005.08
2018-01-25T03:03:26.801Z,1005.03
2018-01-25T03:03:52.891Z,1005.01
2018-01-25T03:04:18.995Z,1005.08
2018-01-25T03:04:45.113Z,1005.01
2018-01-25T03:05:11.220Z,1005.03
2018-01-25T03:05:37.325Z,1005.01
2018-01-25T03:06:03.426Z,1005.04
2018-01-25T03:06:29.531Z,1005.06
2018-01-25T03:06:55.631Z,1005.04
2018-01-25T03:07:21.724Z,1005.04
2018-01-25T03:07:47.849Z,1005.04
2018-01-25T03:08:13.967Z,1004.98
2018-01-25T03:08:40.090Z,1005.03
2018-01-25T03:09:06.194Z,1005.02
2018-01-25T03:09:32.300Z,1005.07
2018-01-25T03:09:58.396Z,1005.03
2018-01-25T03:10:24.500Z,1005.06
2018-01-25T03:10:50.599Z,1004.97
2018-01-25T03:11:16.704Z,1005.04
2018-01-25T03:11:42.808Z,1005.08
2018-01-25T03:12:08.909Z,1005.09
2018-01-25T03:12:35.025Z,1005.09
2018-01-25T03:13:01.127Z,1005.1
2018-01-25T03:13:27.224Z,1005.13
2018-01-25T03:13:53.331Z,1005.12
2018-01-25T03:14:19.427Z,1005.14
2018-01-25T03:14:45.534Z,1005.15
2018-01-25T03:15:11.650Z,1005.15
2018-01-25T03:15:37.748Z,1005.23
2018-01-25T03:16:03.851Z,1005.17
2018-01-25T03:16:29.950Z,1005.19
2018-01-25T03:16:56.054Z,1005.18
2018-01-25T03:17:22.153Z,1005.18
2018-01-25T03:17:48.277Z,1005.18
2018-01-25T03:18:14.389Z,1005.2
2018-01-25T03:18:40.484Z,1005.24
2018-01-25T03:19:06.589Z,1005.25
2018-01-25T03:19:32.686Z,1005.26
2018-01-25T03:19:58.790Z,1005.24
2018-01-25T03:20:24.888Z,1005.25
2018-01-25T03:20:50.996Z,1005.27
2018-01-25T03:21:17.101Z,1005.25
2018-01-25T03:21:43.201Z,1005.35
2018-01-25T03:22:09.303Z,1005.32
2018-01-25T03:22:35.407Z,1005.35
2018-01-25T03:23:01.503Z,1005.38
2018-01-25T03:23:27.610Z,1005.34
2018-01-25T03:23:53.763Z,1005.36
2018-01-25T03:24:19.816Z,1005.35
2018-01-25T03:24:45.918Z,1005.35
2018-01-25T03:25:12.018Z,1005.33
2018-01-25T03:25:38.124Z,1005.35
2018-01-25T03:26:04.228Z,1005.35
2018-01-25T03:26:30.322Z,1005.36
2018-01-25T03:26:56.423Z,1005.34
2018-01-25T03:27:22.537Z,1005.35
2018-01-25T03:27:48.632Z,1005.35
2018-01-25T03:28:14.734Z,1005.31
2018-01-25T03:28:40.840Z,1005.3
2018-01-25T03:29:06.940Z,1005.33
2018-01-25T03:29:33.047Z,1005.37
2018-01-25T03:29:59.151Z,1005.35
2018-01-25T03:30:25.246Z,1005.34
2018-01-25T03:30:51.354Z,1005.38
2018-01-25T03:31:17.454Z,1005.36
2018-01-25T03:31:43.559Z,1005.31
2018-01-25T03:32:09.658Z,1005.37
2018-01-25T03:32:35.780Z,1005.37
2018-01-25T03:33:01.886Z,1005.36
2018-01-25T03:33:27.985Z,1005.34
2018-01-25T03:33:54.091Z,1005.44
2018-01-25T03:34:20.195Z,1005.41
2018-01-25T03:34:46.293Z,1005.39
2018-01-25T03:35:12.391Z,1005.42
2018-01-25T03:35:38.497Z,1005.39
2018-01-25T03:36:04.602Z,1005.44
2018-01-25T03:36:30.698Z,1005.45
2018-01-25T03:36:56.805Z,1005.46
2018-01-25T03:37:22.910Z,1005.5
2018-01-25T03:37:49.020Z,1005.47
2018-01-25T03:38:15.121Z,1005.49
2018-01-25T03:38:41.221Z,1005.51
2018-01-25T03:39:07.327Z,1005.56
2018-01-25T03:39:33.422Z,1005.51
2018-01-25T03:39:59.528Z,1005.51
2018-01-25T03:40:25.643Z,1005.55
2018-01-25T03:40:51.741Z,1005.59
2018-01-25T03:41:17.844Z,1005.59
2018-01-25T03:41:43.941Z,1005.59
2018-01-25T03:42:10.042Z,1005.55
2018-01-25T03:42:36.148Z,1005.53
2018-01-25T03:43:02.243Z,1005.57
2018-01-25T03:43:28.352Z,1005.52
2018-01-25T03:43:54.454Z,1005.56
2018-01-25T03:44:20.555Z,1005.56
2018-01-25T03:44:46.691Z,1005.54
2018-01-25T03:45:12.839Z,1005.56
2018-01-25T03:45:38.909Z,1005.53
2018-01-25T03:46:05.016Z,1005.54
2018-01-25T03:46:31.117Z,1005.55
2018-01-25T03:46:57.224Z,1005.53
2018-01-25T03:47:23.321Z,1005.55
2018-01-25T03:47:49.425Z,1005.48
2018-01-25T03:48:15.526Z,1005.48
2018-01-25T03:48:41.624Z,1005.48
2018-01-25T03:49:07.730Z,1005.5
2018-01-25T03:49:33.825Z,1005.49
2018-01-25T03:49:59.932Z,1005.43
2018-01-25T03:50:26.030Z,1005.42
2018-01-25T03:50:52.135Z,1005.45
2018-01-25T03:51:18.237Z,1005.42
2018-01-25T03:51:44.333Z,1005.46
2018-01-25T03:52:10.433Z,1005.46
2018-01-25T03:52:36.549Z,1005.45
2018-01-25T03:53:02.654Z,1005.52
2018-01-25T03:53:28.755Z,1005.51
2018-01-25T03:53:54.856Z,1005.5
2018-01-25T03:54:20.965Z,1005.51
2018-01-25T03:54:47.064Z,1005.54
2018-01-25T03:55:13.160Z,1005.55
2018-01-25T03:55:39.261Z,1005.56
2018-01-25T03:56:05.363Z,1005.55
2018-01-25T03:56:31.469Z,1005.56
2018-01-25T03:56:57.569Z,1005.61
2018-01-25T03:57:23.675Z,1005.56
2018-01-25T03:57:49.779Z,1005.59
2018-01-25T03:58:15.880Z,1005.62
2018-01-25T03:58:41.975Z,1005.54
2018-01-25T03:59:08.081Z,1005.58
2018-01-25T03:59:34.184Z,1005.56
2018-01-25T04:00:00.282Z,1005.57
2018-01-25T04:00:26.404Z,1005.56
2018-01-25T04:00:52.501Z,1005.54
2018-01-25T04:01:18.602Z,1005.56
2018-01-25T04:01:44.703Z,1005.57
2018-01-25T04:02:10.834Z,1005.56
2018-01-25T04:02:36.930Z,1005.56
2018-01-25T04:03:03.029Z,1005.54
2018-01-25T04:03:29.134Z,1005.55
2018-01-25T04:03:55.230Z,1005.52
2018-01-25T04:04:21.338Z,1005.53
2018-01-25T04:04:47.434Z,1005.57
2018-01-25T04:05:13.537Z,1005.55
2018-01-25T04:05:39.640Z,1005.53
2018-01-25T04:06:05.742Z,1005.51
2018-01-25T04:06:31.841Z,1005.54
2018-01-25T04:06:57.948Z,1005.6
2018-01-25T04:07:24.052Z,1005.51
2018-01-25T04:07:50.154Z,1005.51
2018-01-25T04:08:16.260Z,1005.58
2018-01-25T04:08:42.356Z,1005.56
2018-01-25T04:09:08.457Z,1005.65
2018-01-25T04:09:34.552Z,1005.61
2018-01-25T04:10:00.660Z,1005.63
2018-01-25T04:10:26.758Z,1005.63
2018-01-25T04:10:52.862Z,1005.68
2018-01-25T04:11:18.968Z,1005.62
2018-01-25T04:11:45.062Z,1005.7
2018-01-25T04:12:11.161Z,1005.68
2018-01-25T04:12:37.267Z,1005.69
2018-01-25T04:13:03.362Z,1005.66
2018-01-25T04:13:29.464Z,1005.68
2018-01-25T04:13:55.561Z,1005.7
2018-01-25T04:14:21.666Z,1005.67
2018-01-25T04:14:47.766Z,1005.62
2018-01-25T04:15:13.888Z,1005.73
2018-01-25T04:15:39.985Z,1005.66
2018-01-25T04:16:06.087Z,1005.66
2018-01-25T04:16:32.189Z,1005.68
2018-01-25T04:16:58.288Z,1005.68
2018-01-25T04:17:24.398Z,1005.63
2018-01-25T04:17:50.504Z,1005.68
2018-01-25T04:18:16.600Z,1005.65
2018-01-25T04:18:42.701Z,1005.68
2018-01-25T04:19:08.796Z,1005.73
2018-01-25T04:19:34.915Z,1005.71
2018-01-25T04:20:01.035Z,1005.69
2018-01-25T04:20:27.144Z,1005.72
2018-01-25T04:20:53.238Z,1005.77
2018-01-25T04:21:19.331Z,1005.81
2018-01-25T04:21:45.441Z,1005.81
2018-01-25T04:22:11.540Z,1005.85
2018-01-25T04:22:37.641Z,1005.86
2018-01-25T04:23:03.751Z,1005.86
2018-01-25T04:23:29.855Z,1005.89
2018-01-25T04:23:55.954Z,1005.89
2018-01-25T04:24:22.057Z,1005.93
2018-01-25T04:24:48.163Z,1005.86
2018-01-25T04:25:14.259Z,1005.87
2018-01-25T04:25:40.362Z,1005.89
2018-01-25T04:26:06.466Z,1005.91
2018-01-25T04:26:32.565Z,1005.88
2018-01-25T04:26:58.676Z,1005.89
2018-01-25T04:27:24.791Z,1005.87
2018-01-25T04:27:50.885Z,1005.87
2018-01-25T04:28:16.992Z,1005.87
2018-01-25T04:28:43.095Z,1005.88
2018-01-25T04:29:09.195Z,1005.87
2018-01-25T04:29:35.301Z,1005.9
2018-01-25T04:30:01.402Z,1005.84
2018-01-25T04:30:27.503Z,1005.87
2018-01-25T04:30:53.606Z,1005.87
2018-01-25T04:31:19.721Z,1005.9
2018-01-25T04:31:45.841Z,1005.84
2018-01-25T04:32:11.947Z,1005.86
2018-01-25T04:32:38.048Z,1005.85
2018-01-25T04:33:04.151Z,1005.85
2018-01-25T04:33:30.252Z,1005.86
2018-01-25T04:33:56.353Z,1005.87
2018-01-25T04:34:22.474Z,1005.84
2018-01-25T04:34:48.574Z,1005.9
2018-01-25T04:35:14.690Z,1005.91
2018-01-25T04:35:40.798Z,1005.89
2018-01-25T04:36:06.894Z,1005.9
2018-01-25T04:36:32.997Z,1005.9
2018-01-25T04:36:59.116Z,1005.94
2018-01-25T04:37:25.218Z,1005.89
2018-01-25T04:37:51.325Z,1005.88
2018-01-25T04:38:17.420Z,1005.91
2018-01-25T04:38:43.521Z,1005.9
2018-01-25T04:39:09.641Z,1005.89
2018-01-25T04:39:35.745Z,1005.83
2018-01-25T04:40:01.845Z,1005.83
2018-01-25T04:40:27.942Z,1005.87
2018-01-25T04:40:54.043Z,1005.92
2018-01-25T04:41:20.147Z,1005.87
2018-01-25T04:41:46.247Z,1005.88
2018-01-25T04:42:12.349Z,1005.85
2018-01-25T04:42:38.456Z,1005.86
2018-01-25T04:43:04.558Z,1005.88
2018-01-25T04:43:30.659Z,1005.84
2018-01-25T04:43:56.750Z,1005.87
2018-01-25T04:44:22.855Z,1005.86
2018-01-25T04:44:48.973Z,1005.84
2018-01-25T04:45:15.095Z,1005.89
2018-01-25T04:45:41.196Z,1005.91
2018-01-25T04:46:07.301Z,1005.89
2018-01-25T04:46:33.401Z,1005.9
2018-01-25T04:46:59.503Z,1005.88
2018-01-25T04:47:25.601Z,1005.88
2018-01-25T04:47:51.713Z,1005.83
2018-01-25T04:48:17.818Z,1005.84
2018-01-25T04:48:43.917Z,1005.85
2018-01-25T04:49:10.028Z,1005.88
2018-01-25T04:49:36.116Z,1005.83
2018-01-25T04:50:02.224Z,1005.83
2018-01-25T04:50:28.325Z,1005.86
2018-01-25T04:50:54.424Z,1005.8
2018-01-25T04:51:20.526Z,1005.79
2018-01-25T04:51:46.630Z,1005.77
2018-01-25T04:52:12.725Z,1005.73
2018-01-25T04:52:38.827Z,1005.73
2018-01-25T04:53:04.931Z,1005.7
2018-01-25T04:53:31.033Z,1005.72
2018-01-25T04:53:57.148Z,1005.74
2018-01-25T04:54:23.252Z,1005.7
2018-01-25T04:54:49.357Z,1005.73
2018-01-25T04:55:15.455Z,1005.78
2018-01-25T04:55:41.561Z,1005.76
2018-01-25T04:56:07.656Z,1005.8
2018-01-25T04:56:33.763Z,1005.78
2018-01-25T04:56:59.883Z,1005.84
2018-01-25T04:57:25.982Z,1005.81
2018-01-25T04:57:52.081Z,1005.77
2018-01-25T04:58:18.180Z,1005.76
2018-01-25T04:58:44.286Z,1005.82
2018-01-25T04:59:10.382Z,1005.86
2018-01-25T04:59:36.483Z,1005.83
2018-01-25T05:00:02.588Z,1005.79
2018-01-25T05:00:28.684Z,1005.85
2018-01-25T05:00:54.788Z,1005.8
2018-01-25T05:01:20.888Z,1005.81
2018-01-25T05:01:46.995Z,1005.9
2018-01-25T05:02:13.108Z,1005.87
2018-01-25T05:02:39.209Z,1005.8
2018-01-25T05:03:05.327Z,1005.82
2018-01-25T05:03:31.423Z,1005.89
2018-01-25T05:03:57.532Z,1005.85
2018-01-25T05:04:23.626Z,1005.87
2018-01-25T05:04:49.728Z,1005.89
2018-01-25T05:05:15.835Z,1005.84
2018-01-25T05:05:41.934Z,1005.87
2018-01-25T05:06:08.032Z,1005.86
2018-01-25T05:06:34.138Z,1005.88
2018-01-25T05:07:00.240Z,1005.85
2018-01-25T05:07:26.342Z,1005.91
2018-01-25T05:07:52.447Z,1005.88
2018-01-25T05:08:18.539Z,1005.91
2018-01-25T05:08:44.647Z,1005.92
2018-01-25T05:09:10.742Z,1005.93
2018-01-25T05:09:36.866Z,1005.92
2018-01-25T05:10:02.970Z,1005.94
2018-01-25T05:10:29.071Z,1005.97
2018-01-25T05:10:55.189Z,1005.98
2018-01-25T05:11:21.293Z,1005.96
2018-01-25T05:11:47.392Z,1006.04
2018-01-25T05:12:13.501Z,1006.03
2018-01-25T05:12:39.605Z,1006
2018-01-25T05:13:05.705Z,1005.93
2018-01-25T05:13:31.805Z,1005.89
2018-01-25T05:13:57.911Z,1005.87
2018-01-25T05:14:24.008Z,1005.89
2018-01-25T05:14:50.110Z,1005.87
2018-01-25T05:15:16.216Z,1005.82
2018-01-25T05:15:42.336Z,1005.83
2018-01-25T05:16:08.441Z,1005.9
2018-01-25T05:16:34.539Z,1005.92
2018-01-25T05:17:00.653Z,1005.93